sensor_id;sensor_type;location;lat;lon;timestamp;pressure;altitude;pressure_sealevel;temperature;humidity
44079;BME280;29744;49.078;12.878;2024-02-15T00:04:28;96896.63;;;14.29;37.36
44079;BME280;29744;49.078;12.878;2024-02-15T00:09:29;96894.44;;;14.31;37.35
44079;BME280;29744;49.078;12.878;2024-02-15T00:14:29;96891.72;;;14.31;37.29
44079;BME280;29744;49.078;12.878;2024-02-15T00:19:29;96898.72;;;14.32;37.33
44079;BME280;29744;49.078;12.878;2024-02-15T00:24:30;96893.00;;;14.33;36.98
44079;BME280;29744;49.078;12.878;2024-02-15T00:29:31;96891.09;;;14.34;37.33
44079;BME280;29744;49.078;12.878;2024-02-15T00:34:31;96899.50;;;14.32;37.46
44079;BME280;29744;49.078;12.878;2024-02-15T00:39:32;96882.22;;;14.33;37.01
44079;BME280;29744;49.078;12.878;2024-02-15T00:44:32;96889.22;;;14.34;37.15
44079;BME280;29744;49.078;12.878;2024-02-15T00:49:33;96897.00;;;14.36;37.12
44079;BME280;29744;49.078;12.878;2024-02-15T00:54:33;96886.19;;;14.36;37.40
44079;BME280;29744;49.078;12.878;2024-02-15T00:59:34;96882.69;;;14.35;37.18
44079;BME280;29744;49.078;12.878;2024-02-15T01:04:37;96877.00;;;14.37;37.19
44079;BME280;29744;49.078;12.878;2024-02-15T01:09:37;96874.28;;;14.37;37.08
44079;BME280;29744;49.078;12.878;2024-02-15T01:14:37;96869.69;;;14.37;37.41
44079;BME280;29744;49.078;12.878;2024-02-15T01:19:38;96860.81;;;14.37;37.39
44079;BME280;29744;49.078;12.878;2024-02-15T01:24:38;96874.78;;;14.39;36.91
44079;BME280;29744;49.078;12.878;2024-02-15T01:29:38;96879.06;;;14.40;37.06
44079;BME280;29744;49.078;12.878;2024-02-15T01:34:40;96859.38;;;14.39;36.90
44079;BME280;29744;49.078;12.878;2024-02-15T01:39:40;96871.78;;;14.40;37.17
44079;BME280;29744;49.078;12.878;2024-02-15T01:44:41;96873.38;;;14.41;36.88
44079;BME280;29744;49.078;12.878;2024-02-15T01:49:44;96871.47;;;14.42;37.18
44079;BME280;29744;49.078;12.878;2024-02-15T01:54:45;96866.06;;;14.42;36.87
44079;BME280;29744;49.078;12.878;2024-02-15T01:59:46;96862.56;;;14.41;37.42
44079;BME280;29744;49.078;12.878;2024-02-15T02:04:46;96871.94;;;14.44;37.10
44079;BME280;29744;49.078;12.878;2024-02-15T02:09:47;96863.84;;;14.44;37.36
44079;BME280;29744;49.078;12.878;2024-02-15T02:14:47;96861.16;;;14.44;36.78
44079;BME280;29744;49.078;12.878;2024-02-15T02:19:48;96858.44;;;14.44;37.07
44079;BME280;29744;49.078;12.878;2024-02-15T02:25:03;96850.34;;;14.44;37.28
44079;BME280;29744;49.078;12.878;2024-02-15T02:30:12;96851.16;;;14.44;37.10
44079;BME280;29744;49.078;12.878;2024-02-15T02:35:15;96846.56;;;14.45;37.28
44079;BME280;29744;49.078;12.878;2024-02-15T02:40:16;96851.63;;;14.46;37.08
44079;BME280;29744;49.078;12.878;2024-02-15T02:45:17;96848.13;;;14.46;37.44
44079;BME280;29744;49.078;12.878;2024-02-15T02:50:23;96838.94;;;14.47;36.93
44079;BME280;29744;49.078;12.878;2024-02-15T02:55:23;96842.75;;;14.46;36.99
44079;BME280;29744;49.078;12.878;2024-02-15T03:00:23;96847.81;;;14.47;37.36
44079;BME280;29744;49.078;12.878;2024-02-15T03:05:24;96847.03;;;14.47;37.25
44079;BME280;29744;49.078;12.878;2024-02-15T03:10:24;96847.81;;;14.47;37.09
44079;BME280;29744;49.078;12.878;2024-02-15T03:15:24;96853.22;;;14.47;37.21
44079;BME280;29744;49.078;12.878;2024-02-15T03:20:25;96860.53;;;14.47;37.35
44079;BME280;29744;49.078;12.878;2024-02-15T03:25:26;96857.81;;;14.47;37.05
44079;BME280;29744;49.078;12.878;2024-02-15T03:30:27;96862.13;;;14.48;37.10
44079;BME280;29744;49.078;12.878;2024-02-15T03:35:29;96856.72;;;14.48;36.95
44079;BME280;29744;49.078;12.878;2024-02-15T03:40:31;96869.09;;;14.49;36.96
44079;BME280;29744;49.078;12.878;2024-02-15T03:45:32;96869.91;;;14.49;36.91
44079;BME280;29744;49.078;12.878;2024-02-15T03:50:32;96869.09;;;14.49;36.92
44079;BME280;29744;49.078;12.878;2024-02-15T03:55:33;96863.41;;;14.50;37.18
44079;BME280;29744;49.078;12.878;2024-02-15T04:00:33;96870.69;;;14.50;37.15
44079;BME280;29744;49.078;12.878;2024-02-15T04:05:33;96859.91;;;14.50;37.15
44079;BME280;29744;49.078;12.878;2024-02-15T04:10:34;96867.19;;;14.49;37.11
44079;BME280;29744;49.078;12.878;2024-02-15T04:15:35;96860.69;;;14.50;37.26
44079;BME280;29744;49.078;12.878;2024-02-15T04:20:35;96863.41;;;14.50;37.35
44079;BME280;29744;49.078;12.878;2024-02-15T04:25:36;96860.69;;;14.50;36.99
44079;BME280;29744;49.078;12.878;2024-02-15T04:30:36;96858.78;;;14.51;37.18
44079;BME280;29744;49.078;12.878;2024-02-15T04:35:38;96862.28;;;14.52;37.21
44079;BME280;29744;49.078;12.878;2024-02-15T04:40:38;96856.09;;;14.51;37.08
44079;BME280;29744;49.078;12.878;2024-02-15T04:45:39;96857.69;;;14.52;36.79
44079;BME280;29744;49.078;12.878;2024-02-15T04:50:39;96868.47;;;14.52;36.99
44079;BME280;29744;49.078;12.878;2024-02-15T04:55:43;96851.50;;;14.52;37.03
44079;BME280;29744;49.078;12.878;2024-02-15T05:00:44;96852.28;;;14.52;37.18
44079;BME280;29744;49.078;12.878;2024-02-15T05:05:44;96860.38;;;14.52;37.24
44079;BME280;29744;49.078;12.878;2024-02-15T05:10:44;96858.47;;;14.53;36.73
44079;BME280;29744;49.078;12.878;2024-02-15T05:15:46;96863.88;;;14.53;36.90
44079;BME280;29744;49.078;12.878;2024-02-15T05:20:46;96861.97;;;14.53;36.83
44079;BME280;29744;49.078;12.878;2024-02-15T05:25:46;96861.97;;;14.53;37.12
44079;BME280;29744;49.078;12.878;2024-02-15T05:30:47;96865.47;;;14.54;37.25
44079;BME280;29744;49.078;12.878;2024-02-15T05:35:48;96859.28;;;14.53;37.04
44079;BME280;29744;49.078;12.878;2024-02-15T05:40:51;96855.47;;;14.54;37.03
44079;BME280;29744;49.078;12.878;2024-02-15T05:45:51;96850.06;;;14.54;36.77
44079;BME280;29744;49.078;12.878;2024-02-15T05:50:54;96861.66;;;14.55;37.30
44079;BME280;29744;49.078;12.878;2024-02-15T05:55:55;96862.47;;;14.55;37.36
44079;BME280;29744;49.078;12.878;2024-02-15T06:00:58;96863.25;;;14.56;37.32
44079;BME280;29744;49.078;12.878;2024-02-15T06:06:02;96861.66;;;14.55;37.18
44079;BME280;29744;49.078;12.878;2024-02-15T06:11:06;96865.94;;;14.56;37.03
44079;BME280;29744;49.078;12.878;2024-02-15T06:16:07;96856.25;;;14.55;37.10
44079;BME280;29744;49.078;12.878;2024-02-15T06:21:09;96865.16;;;14.55;36.91
44079;BME280;29744;49.078;12.878;2024-02-15T06:26:10;96869.44;;;14.56;36.87
44079;BME280;29744;49.078;12.878;2024-02-15T06:31:11;96866.75;;;14.56;37.03
44079;BME280;29744;49.078;12.878;2024-02-15T06:36:30;96857.06;;;14.55;37.16
44079;BME280;29744;49.078;12.878;2024-02-15T06:41:49;96870.56;;;14.55;37.11
44079;BME280;29744;49.078;12.878;2024-02-15T06:46:50;96882.94;;;14.56;37.10
44079;BME280;29744;49.078;12.878;2024-02-15T06:51:51;96869.44;;;14.56;37.26
44079;BME280;29744;49.078;12.878;2024-02-15T06:56:52;96887.22;;;14.57;37.36
44079;BME280;29744;49.078;12.878;2024-02-15T07:01:54;96889.94;;;14.57;37.12
44079;BME280;29744;49.078;12.878;2024-02-15T07:06:54;96888.03;;;14.58;37.02
44079;BME280;29744;49.078;12.878;2024-02-15T07:11:56;96888.03;;;14.58;37.02
44079;BME280;29744;49.078;12.878;2024-02-15T07:16:57;96891.53;;;14.58;37.09
44079;BME280;29744;49.078;12.878;2024-02-15T07:21:58;96895.00;;;14.59;36.84
44079;BME280;29744;49.078;12.878;2024-02-15T07:26:58;96895.00;;;14.59;37.27
44079;BME280;29744;49.078;12.878;2024-02-15T07:32:02;96903.91;;;14.59;36.77
44079;BME280;29744;49.078;12.878;2024-02-15T07:37:06;96910.06;;;14.51;37.41
44079;BME280;29744;49.078;12.878;2024-02-15T07:42:07;96904.38;;;14.61;36.74
44079;BME280;29744;49.078;12.878;2024-02-15T07:47:12;96905.19;;;14.62;37.05
44079;BME280;29744;49.078;12.878;2024-02-15T07:52:13;96906.28;;;14.61;37.27
44079;BME280;29744;49.078;12.878;2024-02-15T07:57:13;96902.00;;;14.60;36.83
44079;BME280;29744;49.078;12.878;2024-02-15T08:02:14;96901.53;;;14.58;37.08
44079;BME280;29744;49.078;12.878;2024-02-15T08:07:18;96892.94;;;14.56;37.31
44079;BME280;29744;49.078;12.878;2024-02-15T08:12:20;96889.44;;;14.55;37.30
44079;BME280;29744;49.078;12.878;2024-02-15T08:17:21;96890.88;;;14.53;37.30
44079;BME280;29744;49.078;12.878;2024-02-15T08:22:21;96880.38;;;14.51;37.14
44079;BME280;29744;49.078;12.878;2024-02-15T08:27:23;96874.50;;;14.49;36.86
44079;BME280;29744;49.078;12.878;2024-02-15T08:32:24;96872.13;;;14.47;37.02
44079;BME280;29744;49.078;12.878;2024-02-15T08:37:24;96875.91;;;14.46;36.88
44079;BME280;29744;49.078;12.878;2024-02-15T08:42:24;96866.53;;;14.44;37.04
44079;BME280;29744;49.078;12.878;2024-02-15T08:47:25;96873.06;;;14.43;36.90
44079;BME280;29744;49.078;12.878;2024-02-15T08:52:25;96868.75;;;14.42;37.22
44079;BME280;29744;49.078;12.878;2024-02-15T08:57:26;96867.47;;;14.39;37.31
44079;BME280;29744;49.078;12.878;2024-02-15T09:02:27;96857.78;;;14.38;36.82
44079;BME280;29744;49.078;12.878;2024-02-15T09:07:27;96858.09;;;14.37;37.38
44079;BME280;29744;49.078;12.878;2024-02-15T09:12:28;96856.81;;;14.34;37.33
44079;BME280;29744;49.078;12.878;2024-02-15T09:17:28;96853.03;;;14.35;37.14
44079;BME280;29744;49.078;12.878;2024-02-15T09:22:32;96849.84;;;14.33;37.03
44079;BME280;29744;49.078;12.878;2024-02-15T09:27:33;96844.75;;;14.32;37.21
44079;BME280;29744;49.078;12.878;2024-02-15T09:32:33;96838.56;;;14.31;36.94
44079;BME280;29744;49.078;12.878;2024-02-15T09:37:42;96846.66;;;14.31;37.14
44079;BME280;29744;49.078;12.878;2024-02-15T09:42:44;96842.69;;;14.29;36.94
44079;BME280;29744;49.078;12.878;2024-02-15T09:47:45;96839.19;;;14.28;37.03
44079;BME280;29744;49.078;12.878;2024-02-15T09:52:50;96836.00;;;14.26;37.00
44079;BME280;29744;49.078;12.878;2024-02-15T09:57:51;96838.72;;;14.26;37.43
44079;BME280;29744;49.078;12.878;2024-02-15T10:02:51;96833.31;;;14.26;37.63
44079;BME280;29744;49.078;12.878;2024-02-15T10:07:55;96833.63;;;14.25;37.45
44079;BME280;29744;49.078;12.878;2024-02-15T10:12:56;96827.44;;;14.24;37.38
44079;BME280;29744;49.078;12.878;2024-02-15T10:17:57;96830.94;;;14.25;37.35
44079;BME280;29744;49.078;12.878;2024-02-15T10:23:08;96837.44;;;14.24;37.12
44079;BME280;29744;49.078;12.878;2024-02-15T10:28:14;96834.72;;;14.24;37.10
44079;BME280;29744;49.078;12.878;2024-02-15T10:33:26;96833.13;;;14.23;37.31
44079;BME280;29744;49.078;12.878;2024-02-15T10:38:29;96819.94;;;14.21;37.41
44079;BME280;29744;49.078;12.878;2024-02-15T10:43:29;96819.13;;;14.21;37.33
44079;BME280;29744;49.078;12.878;2024-02-15T10:48:30;96819.94;;;14.21;37.32
44079;BME280;29744;49.078;12.878;2024-02-15T10:53:31;96805.66;;;14.21;37.81
44079;BME280;29744;49.078;12.878;2024-02-15T10:58:33;96800.25;;;14.21;37.15
44079;BME280;29744;49.078;12.878;2024-02-15T11:03:50;96791.38;;;14.20;37.47
44079;BME280;29744;49.078;12.878;2024-02-15T11:08:53;96791.38;;;14.20;37.35
44079;BME280;29744;49.078;12.878;2024-02-15T11:14:22;96778.50;;;14.17;37.25
44079;BME280;29744;49.078;12.878;2024-02-15T11:24:36;96765.50;;;14.19;37.66
44079;BME280;29744;49.078;12.878;2024-02-15T11:35:12;96746.44;;;14.15;37.31
44079;BME280;29744;49.078;12.878;2024-02-15T11:40:20;96741.53;;;14.17;37.90
44079;BME280;29744;49.078;12.878;2024-02-15T11:45:23;96748.03;;;14.16;37.48
44079;BME280;29744;49.078;12.878;2024-02-15T11:50:27;96742.34;;;14.18;37.78
44079;BME280;29744;49.078;12.878;2024-02-15T11:55:28;96728.06;;;14.17;37.69
44079;BME280;29744;49.078;12.878;2024-02-15T12:00:28;96726.47;;;14.16;37.54
44079;BME280;29744;49.078;12.878;2024-02-15T12:06:01;96720.28;;;14.16;37.39
44079;BME280;29744;49.078;12.878;2024-02-15T12:11:20;96717.56;;;14.16;37.64
44079;BME280;29744;49.078;12.878;2024-02-15T12:16:39;96709.81;;;14.14;37.66
44079;BME280;29744;49.078;12.878;2024-02-15T12:21:59;96707.91;;;14.15;37.36
44079;BME280;29744;49.078;12.878;2024-02-15T12:27:00;96709.50;;;14.16;37.83
44079;BME280;29744;49.078;12.878;2024-02-15T12:32:03;96705.19;;;14.15;37.27
44079;BME280;29744;49.078;12.878;2024-02-15T12:37:07;96701.41;;;14.16;37.32
44079;BME280;29744;49.078;12.878;2024-02-15T12:42:10;96692.03;;;14.13;37.83
44079;BME280;29744;49.078;12.878;2024-02-15T12:47:20;96692.03;;;14.13;37.45
44079;BME280;29744;49.078;12.878;2024-02-15T12:52:38;96690.13;;;14.14;37.83
44079;BME280;29744;49.078;12.878;2024-02-15T12:57:44;96684.72;;;14.14;37.73
44079;BME280;29744;49.078;12.878;2024-02-15T13:02:51;96686.63;;;14.13;37.40
44079;BME280;29744;49.078;12.878;2024-02-15T13:07:53;96669.34;;;14.14;37.79
44079;BME280;29744;49.078;12.878;2024-02-15T13:12:56;96667.75;;;14.13;37.63
44079;BME280;29744;49.078;12.878;2024-02-15T13:17:56;96665.06;;;14.13;37.54
44079;BME280;29744;49.078;12.878;2024-02-15T13:22:57;96652.69;;;14.12;37.73
44079;BME280;29744;49.078;12.878;2024-02-15T13:28:03;96647.28;;;14.12;37.91
44079;BME280;29744;49.078;12.878;2024-02-15T13:33:04;96651.09;;;14.11;37.85
44079;BME280;29744;49.078;12.878;2024-02-15T13:38:05;96652.69;;;14.12;37.57
44079;BME280;29744;49.078;12.878;2024-02-15T13:43:08;96655.69;;;14.11;37.34
44079;BME280;29744;49.078;12.878;2024-02-15T13:48:10;96653.00;;;14.11;37.85
44079;BME280;29744;49.078;12.878;2024-02-15T13:53:13;96650.31;;;14.11;37.73
44079;BME280;29744;49.078;12.878;2024-02-15T13:58:16;96650.31;;;14.11;37.61
44079;BME280;29744;49.078;12.878;2024-02-15T14:03:16;96641.41;;;14.10;37.68
44079;BME280;29744;49.078;12.878;2024-02-15T14:08:18;96640.31;;;14.11;37.85
44079;BME280;29744;49.078;12.878;2024-02-15T14:13:20;96630.63;;;14.10;37.67
44079;BME280;29744;49.078;12.878;2024-02-15T14:18:22;96633.66;;;14.09;37.79
44079;BME280;29744;49.078;12.878;2024-02-15T14:23:24;96623.66;;;14.09;37.79
44079;BME280;29744;49.078;12.878;2024-02-15T14:28:27;96623.66;;;14.09;37.51
44079;BME280;29744;49.078;12.878;2024-02-15T14:33:28;96610.00;;;14.06;37.75
44079;BME280;29744;49.078;12.878;2024-02-15T14:38:28;96617.47;;;14.09;37.93
44079;BME280;29744;49.078;12.878;2024-02-15T14:43:28;96598.91;;;14.07;37.52
44079;BME280;29744;49.078;12.878;2024-02-15T14:48:29;96615.09;;;14.07;37.86
44079;BME280;29744;49.078;12.878;2024-02-15T14:53:31;96615.09;;;14.07;37.83
44079;BME280;29744;49.078;12.878;2024-02-15T14:58:31;96610.78;;;14.06;37.55
44079;BME280;29744;49.078;12.878;2024-02-15T15:03:32;96616.50;;;14.05;37.91
44079;BME280;29744;49.078;12.878;2024-02-15T15:08:33;96620.00;;;14.05;37.64
44079;BME280;29744;49.078;12.878;2024-02-15T15:13:52;96626.19;;;14.06;37.71
44079;BME280;29744;49.078;12.878;2024-02-15T15:18:53;96604.94;;;14.04;37.84
44079;BME280;29744;49.078;12.878;2024-02-15T15:23:53;96610.31;;;14.04;37.95
44079;BME280;29744;49.078;12.878;2024-02-15T15:28:54;96608.41;;;14.05;37.73
44079;BME280;29744;49.078;12.878;2024-02-15T15:33:55;96609.53;;;14.04;37.55
44079;BME280;29744;49.078;12.878;2024-02-15T15:38:56;96604.44;;;14.02;37.62
44079;BME280;29744;49.078;12.878;2024-02-15T15:43:56;96604.44;;;14.02;37.61
44079;BME280;29744;49.078;12.878;2024-02-15T15:48:56;96606.34;;;14.02;37.55
44079;BME280;29744;49.078;12.878;2024-02-15T15:53:57;96602.88;;;14.01;38.05
44079;BME280;29744;49.078;12.878;2024-02-15T15:58:58;96608.25;;;14.01;37.69
44079;BME280;29744;49.078;12.878;2024-02-15T16:03:58;96595.88;;;14.00;37.96
44079;BME280;29744;49.078;12.878;2024-02-15T16:08:59;96601.28;;;14.00;37.84
44079;BME280;29744;49.078;12.878;2024-02-15T16:14:00;96598.91;;;13.99;37.79
44079;BME280;29744;49.078;12.878;2024-02-15T16:19:00;96600.47;;;14.00;37.72
44079;BME280;29744;49.078;12.878;2024-02-15T16:24:00;96598.91;;;13.99;37.96
44079;BME280;29744;49.078;12.878;2024-02-15T16:29:01;96598.09;;;13.98;37.43
44079;BME280;29744;49.078;12.878;2024-02-15T16:34:01;96604.91;;;13.96;37.87
44079;BME280;29744;49.078;12.878;2024-02-15T16:39:02;96608.41;;;13.96;37.47
44079;BME280;29744;49.078;12.878;2024-02-15T16:44:02;96606.81;;;13.95;37.68
44079;BME280;29744;49.078;12.878;2024-02-15T16:49:03;96607.63;;;13.96;37.69
44079;BME280;29744;49.078;12.878;2024-02-15T16:54:03;96612.22;;;13.95;37.55
44079;BME280;29744;49.078;12.878;2024-02-15T16:59:05;96622.19;;;13.95;37.63
44079;BME280;29744;49.078;12.878;2024-02-15T17:04:05;96610.63;;;13.94;37.66
44079;BME280;29744;49.078;12.878;2024-02-15T17:09:08;96611.72;;;13.93;37.95
44079;BME280;29744;49.078;12.878;2024-02-15T17:14:09;96616.34;;;13.93;37.52
44079;BME280;29744;49.078;12.878;2024-02-15T17:19:09;96606.34;;;13.93;37.77
44079;BME280;29744;49.078;12.878;2024-02-15T17:24:09;96606.97;;;13.90;37.62
44079;BME280;29744;49.078;12.878;2024-02-15T17:29:10;96610.94;;;13.93;37.82
44079;BME280;29744;49.078;12.878;2024-02-15T17:34:11;96603.16;;;13.91;37.67
44079;BME280;29744;49.078;12.878;2024-02-15T17:39:11;96596.19;;;13.90;37.90
44079;BME280;29744;49.078;12.878;2024-02-15T17:44:14;96605.06;;;13.91;37.75
44079;BME280;29744;49.078;12.878;2024-02-15T17:49:15;96600.78;;;13.90;37.76
44079;BME280;29744;49.078;12.878;2024-02-15T17:54:15;96608.88;;;13.90;37.97
44079;BME280;29744;49.078;12.878;2024-02-15T17:59:15;96610.78;;;13.89;37.50
44079;BME280;29744;49.078;12.878;2024-02-15T18:04:15;96618.06;;;13.89;38.02
44079;BME280;29744;49.078;12.878;2024-02-15T18:09:17;96604.59;;;13.89;37.52
44079;BME280;29744;49.078;12.878;2024-02-15T18:14:17;96605.69;;;13.88;37.72
44079;BME280;29744;49.078;12.878;2024-02-15T18:19:17;96595.72;;;13.88;37.78
44079;BME280;29744;49.078;12.878;2024-02-15T18:24:19;96597.59;;;13.88;37.63
44079;BME280;29744;49.078;12.878;2024-02-15T18:29:20;96594.91;;;13.88;38.02
44079;BME280;29744;49.078;12.878;2024-02-15T18:34:21;96587.94;;;13.86;37.98
44079;BME280;29744;49.078;12.878;2024-02-15T18:39:21;96599.50;;;13.87;37.60
44079;BME280;29744;49.078;12.878;2024-02-15T18:44:24;96597.94;;;13.86;37.71
44079;BME280;29744;49.078;12.878;2024-02-15T18:49:25;96597.94;;;13.86;38.03
44079;BME280;29744;49.078;12.878;2024-02-15T18:54:26;96590.63;;;13.86;37.73
44079;BME280;29744;49.078;12.878;2024-02-15T18:59:26;96587.16;;;13.86;37.44
44079;BME280;29744;49.078;12.878;2024-02-15T19:04:29;96582.84;;;13.85;37.59
44079;BME280;29744;49.078;12.878;2024-02-15T19:09:29;96590.94;;;13.85;37.77
44079;BME280;29744;49.078;12.878;2024-02-15T19:14:31;96595.22;;;13.86;37.69
44079;BME280;29744;49.078;12.878;2024-02-15T19:19:31;96572.06;;;13.85;37.59
44079;BME280;29744;49.078;12.878;2024-02-15T19:24:33;96564.78;;;13.85;37.72
44079;BME280;29744;49.078;12.878;2024-02-15T19:29:34;96564.00;;;13.85;37.74
44079;BME280;29744;49.078;12.878;2024-02-15T19:34:35;96563.19;;;13.84;37.81
44079;BME280;29744;49.078;12.878;2024-02-15T19:39:38;96558.91;;;13.83;37.53
44079;BME280;29744;49.078;12.878;2024-02-15T19:44:40;96560.81;;;13.83;37.88
44079;BME280;29744;49.078;12.878;2024-02-15T19:49:41;96554.31;;;13.84;37.65
44079;BME280;29744;49.078;12.878;2024-02-15T19:54:41;96550.03;;;13.83;37.93
44079;BME280;29744;49.078;12.878;2024-02-15T19:59:42;96542.75;;;13.83;37.61
44079;BME280;29744;49.078;12.878;2024-02-15T20:04:43;96537.34;;;13.83;37.85
44079;BME280;29744;49.078;12.878;2024-02-15T20:09:43;96535.75;;;13.82;37.81
44079;BME280;29744;49.078;12.878;2024-02-15T20:14:44;96533.06;;;13.82;37.78
44079;BME280;29744;49.078;12.878;2024-02-15T20:19:44;96536.56;;;13.83;37.84
44079;BME280;29744;49.078;12.878;2024-02-15T20:24:44;96537.66;;;13.82;37.94
44079;BME280;29744;49.078;12.878;2024-02-15T20:29:46;96538.47;;;13.82;37.76
44079;BME280;29744;49.078;12.878;2024-02-15T20:34:46;96522.28;;;13.82;37.73
44079;BME280;29744;49.078;12.878;2024-02-15T20:39:47;96526.88;;;13.82;37.60
44079;BME280;29744;49.078;12.878;2024-02-15T20:44:48;96530.69;;;13.81;37.83
44079;BME280;29744;49.078;12.878;2024-02-15T20:49:48;96537.66;;;13.82;37.75
44079;BME280;29744;49.078;12.878;2024-02-15T20:54:48;96533.84;;;13.83;37.47
44079;BME280;29744;49.078;12.878;2024-02-15T20:59:49;96526.88;;;13.82;37.97
44079;BME280;29744;49.078;12.878;2024-02-15T21:04:52;96521.81;;;13.80;37.49
44079;BME280;29744;49.078;12.878;2024-02-15T21:09:52;96526.88;;;13.82;37.76
44079;BME280;29744;49.078;12.878;2024-02-15T21:14:53;96530.69;;;13.81;37.54
44079;BME280;29744;49.078;12.878;2024-02-15T21:19:53;96522.59;;;13.81;37.57
44079;BME280;29744;49.078;12.878;2024-02-15T21:24:55;96514.50;;;13.81;37.81
44079;BME280;29744;49.078;12.878;2024-02-15T21:29:55;96514.50;;;13.81;37.88
44079;BME280;29744;49.078;12.878;2024-02-15T21:34:55;96517.22;;;13.81;37.86
44079;BME280;29744;49.078;12.878;2024-02-15T21:39:57;96509.13;;;13.81;37.73
44079;BME280;29744;49.078;12.878;2024-02-15T21:44:57;96504.81;;;13.80;38.06
44079;BME280;29744;49.078;12.878;2024-02-15T21:49:57;96504.03;;;13.79;37.93
44079;BME280;29744;49.078;12.878;2024-02-15T21:54:58;96496.72;;;13.80;38.03
44079;BME280;29744;49.078;12.878;2024-02-15T21:59:59;96498.63;;;13.79;38.02
44079;BME280;29744;49.078;12.878;2024-02-15T22:04:59;96495.13;;;13.79;37.80
44079;BME280;29744;49.078;12.878;2024-02-15T22:10:00;96497.84;;;13.79;37.83
44079;BME280;29744;49.078;12.878;2024-02-15T22:15:01;96495.94;;;13.79;37.58
44079;BME280;29744;49.078;12.878;2024-02-15T22:20:06;96498.63;;;13.79;38.00
44079;BME280;29744;49.078;12.878;2024-02-15T22:25:07;96503.22;;;13.79;37.82
44079;BME280;29744;49.078;12.878;2024-02-15T22:30:09;96505.13;;;13.78;37.76
44079;BME280;29744;49.078;12.878;2024-02-15T22:35:10;96496.25;;;13.78;38.12
44079;BME280;29744;49.078;12.878;2024-02-15T22:40:10;96503.53;;;13.77;37.74
44079;BME280;29744;49.078;12.878;2024-02-15T22:45:11;96494.66;;;13.77;38.09
44079;BME280;29744;49.078;12.878;2024-02-15T22:50:12;96487.38;;;13.77;37.57
44079;BME280;29744;49.078;12.878;2024-02-15T22:55:12;96492.75;;;13.77;37.68
44079;BME280;29744;49.078;12.878;2024-02-15T23:00:13;96491.66;;;13.78;37.74
44079;BME280;29744;49.078;12.878;2024-02-15T23:05:13;96488.47;;;13.76;38.02
44079;BME280;29744;49.078;12.878;2024-02-15T23:10:13;96497.34;;;13.77;38.03
44079;BME280;29744;49.078;12.878;2024-02-15T23:15:14;96491.16;;;13.76;38.10
44079;BME280;29744;49.078;12.878;2024-02-15T23:20:15;96499.25;;;13.76;37.76
44079;BME280;29744;49.078;12.878;2024-02-15T23:25:15;96490.38;;;13.76;38.03
44079;BME280;29744;49.078;12.878;2024-02-15T23:30:15;96491.50;;;13.75;37.69
44079;BME280;29744;49.078;12.878;2024-02-15T23:35:16;96485.00;;;13.76;37.63
44079;BME280;29744;49.078;12.878;2024-02-15T23:40:16;96492.28;;;13.75;37.48
44079;BME280;29744;49.078;12.878;2024-02-15T23:45:22;96483.41;;;13.75;37.84
44079;BME280;29744;49.078;12.878;2024-02-15T23:50:23;96486.88;;;13.75;37.86
44079;BME280;29744;49.078;12.878;2024-02-15T23:55:27;96486.09;;;13.75;38.08
